Terminal Aerodrome Forecast
Issued by NWS Shreveport, LA

Home | Current Version | Previous Version | Text Only | Print | Product List | Glossary On
Versions: 1 2 3 4 5 6 7 8 9 10 11 12 13 14 15
000
FTUS44 KSHV 192300
TAFSHV
TAF
KSHV 192336Z 2000/2024 09008KT P6SM SCT045
     FM200100 11004KT P6SM SKC
     FM201700 10007KT P6SM FEW050=

USA.gov is the U.S. government's official web portal to all federal, state and local government web resources and services.